Time;durP1;ratioP1;P1;durP2;ratioP2;P2;SDS_P1;SDS_P2;PMS_P1;PMS_P2;Temp;Humidity;BMP_temperature;BMP_pressure;BME280_temperature;BME280_humidity;BME280_pressure;Samples;Min_cycle;Max_cycle;Signal;HPM_P1;HPM_P2
2022/06/13 00:00:19;;;;;;;1.23;1.10;;;17.00;99.90;;;17.72;100.00;95508.88;644368;216;31704;-75
2022/06/13 00:03:02;;;;;;;1.20;1.10;;;16.20;1.40;;;17.51;100.00;95498.63;644181;216;31541;-76
2022/06/13 00:05:42;;;;;;;2.60;1.35;;;16.00;1.40;;;17.45;100.00;95523.39;650355;216;31529;-76
2022/06/13 00:08:25;;;;;;;2.33;1.10;;;16.20;1.40;;;17.16;100.00;95545.08;646323;216;42804;-76
2022/06/13 00:11:11;;;;;;;0.90;0.70;;;16.10;1.40;;;17.22;100.00;95552.23;616281;226;32205;-76
2022/06/13 00:13:52;;;;;;;3.55;1.17;;;16.20;1.40;;;17.19;100.00;95548.02;655520;212;31602;-77
2022/06/13 00:16:33;;;;;;;1.15;1.05;;;16.10;1.40;;;17.05;100.00;95543.44;649279;216;31575;-76
2022/06/13 00:19:18;;;;;;;1.67;1.40;;;15.90;1.40;;;16.99;100.00;95543.84;643084;215;31492;-77
2022/06/13 00:22:00;;;;;;;1.40;1.30;;;15.90;1.40;;;16.98;100.00;95530.39;646725;216;31506;-77
2022/06/13 00:24:41;;;;;;;3.22;2.22;;;15.90;1.40;;;17.00;100.00;95529.67;618088;226;31894;-77
2022/06/13 00:27:23;;;;;;;2.28;1.95;;;16.00;1.40;;;17.06;100.00;95524.75;620731;226;31996;-77
2022/06/13 00:30:05;;;;;;;1.65;1.50;;;16.00;1.40;;;17.07;100.00;95520.16;622089;226;31896;-76
2022/06/13 00:32:47;;;;;;;3.90;1.60;;;16.00;99.90;;;17.11;100.00;95515.28;646096;216;31573;-77
2022/06/13 00:35:55;;;;;;;2.10;1.00;;;16.00;1.40;;;17.16;100.00;95536.53;646242;216;31567;-76
2022/06/13 00:38:37;;;;;;;3.10;1.60;;;16.10;1.40;;;17.06;100.00;95580.64;647584;216;31901;-77
2022/06/13 00:41:18;;;;;;;1.65;1.50;;;16.00;1.40;;;16.85;100.00;95608.39;649325;216;31563;-77
2022/06/13 00:44:00;;;;;;;1.70;1.60;;;16.00;1.40;;;16.80;100.00;95607.45;653094;216;31524;-76
2022/06/13 00:46:44;;;;;;;2.20;1.60;;;15.80;1.40;;;16.77;100.00;95603.87;651131;216;31506;-76
2022/06/13 00:49:38;;;;;;;1.25;1.15;;;15.70;1.40;;;16.74;100.00;95599.33;649511;216;31616;-76
2022/06/13 00:52:21;;;;;;;2.08;1.42;;;15.70;1.40;;;16.71;100.00;95585.64;612631;222;32216;-77
2022/06/13 00:55:07;;;;;;;1.30;1.05;;;15.70;1.40;;;16.76;100.00;95564.72;647798;216;31632;-77
2022/06/13 00:57:48;;;;;;;1.30;1.20;;;15.60;1.40;;;16.82;100.00;95549.13;652993;216;31493;-77
2022/06/13 01:00:30;;;;;;;1.15;1.05;;;15.70;1.40;;;16.85;100.00;95515.09;647352;212;32049;-76
2022/06/13 01:03:12;;;;;;;2.72;1.65;;;15.70;1.40;;;16.88;100.00;95526.09;647242;216;31616;-77
2022/06/13 01:05:53;;;;;;;1.77;1.25;;;15.70;1.40;;;16.77;100.00;95530.27;643958;216;31546;-77
2022/06/13 01:08:38;;;;;;;1.83;1.40;;;15.60;1.40;;;16.70;100.00;95526.03;651098;216;31541;-77
2022/06/13 01:11:20;;;;;;;1.00;1.00;;;15.50;1.40;;;16.62;100.00;95524.70;646666;216;31534;-76
2022/06/13 01:17:35;;;;;;;2.93;0.93;;;15.50;1.40;;;16.68;100.00;95547.53;646077;216;31559;-76
2022/06/13 01:20:49;;;;;;;1.10;1.00;;;15.50;1.40;;;16.70;100.00;95554.94;646460;212;31520;-76
2022/06/13 01:29:22;;;;;;;4.60;1.20;;;15.60;1.40;;;16.75;100.00;95549.73;647830;216;31747;-76
2022/06/13 01:32:13;;;;;;;1.20;1.10;;;15.60;1.40;;;16.85;100.00;95555.32;651408;212;32368;-76
2022/06/13 01:36:16;;;;;;;1.30;0.80;;;15.70;1.40;;;16.91;100.00;95563.84;649669;216;31540;-76
2022/06/13 01:39:07;;;;;;;1.00;0.90;;;15.70;1.40;;;16.94;100.00;95551.70;644987;216;31553;-76
2022/06/13 01:41:50;;;;;;;1.70;1.50;;;15.80;1.40;;;16.97;100.00;95537.95;646201;216;31586;-76
2022/06/13 01:45:01;;;;;;;2.72;1.10;;;15.80;1.40;;;16.99;100.00;95546.84;623721;226;31989;-76
2022/06/13 01:48:36;;;;;;;2.20;1.70;;;15.80;1.40;;;17.02;100.00;95544.03;649286;216;31550;-76
2022/06/13 01:51:19;;;;;;;1.30;1.08;;;15.80;1.40;;;16.98;100.00;95560.02;644468;216;31679;-76
2022/06/13 01:56:57;;;;;;;1.67;1.45;;;15.90;1.40;;;16.99;100.00;95590.35;646829;216;31533;-76
2022/06/13 01:59:47;;;;;;;1.60;1.40;;;15.90;1.40;;;16.95;100.00;95585.56;647641;216;31608;-77
2022/06/13 02:02:41;;;;;;;0.90;0.80;;;15.80;1.40;;;16.85;100.00;95580.67;650926;216;31553;-76
2022/06/13 02:05:36;;;;;;;2.22;0.95;;;15.70;1.40;;;16.78;100.00;95576.78;652032;212;32091;-77
2022/06/13 02:08:24;;;;;;;1.02;0.62;;;15.60;1.40;;;16.65;100.00;95592.28;615691;225;32581;-78
2022/06/13 02:11:15;;;;;;;0.80;0.80;;;15.60;1.40;;;16.58;100.00;95596.59;649414;212;31520;-77
2022/06/13 02:14:06;;;;;;;0.80;0.70;;;15.50;1.40;;;16.51;100.00;95578.96;645016;212;31520;-77
2022/06/13 02:16:57;;;;;;;1.23;0.80;;;15.50;1.40;;;16.51;100.00;95573.17;644149;216;31522;-77
2022/06/13 02:19:47;;;;;;;2.08;0.80;;;15.50;1.40;;;16.55;100.00;95554.52;644720;212;31505;-77
2022/06/13 02:22:33;;;;;;;;;;;15.50;1.40;;;16.55;100.00;95540.39;622568;225;24890;-79
2022/06/13 02:25:23;;;;;;;;;;;15.50;1.40;;;16.57;100.00;95544.52;648863;215;25024;-77
2022/06/13 02:28:29;;;;;;;;;;;15.50;1.40;;;16.60;100.00;95541.92;655259;212;24827;-78
2022/06/13 02:31:17;;;;;;;;;;;15.50;1.40;;;16.64;100.00;95542.66;622375;227;25559;-77
2022/06/13 02:35:56;;;;;;;1.48;0.80;;;15.60;1.40;;;16.66;100.00;95541.45;643680;216;31713;-77
2022/06/13 02:38:52;;;;;;;1.60;1.40;;;15.50;1.40;;;16.71;100.00;95546.73;622068;226;31881;-77
2022/06/13 02:41:44;;;;;;;;;;;15.60;1.40;;;16.71;100.00;95541.15;657539;212;24842;-77
2022/06/13 02:44:27;;;;;;;;;;;15.60;1.40;;;16.64;100.00;95540.90;659089;213;24721;-76
2022/06/13 02:47:14;;;;;;;;;;;15.50;1.40;;;16.56;100.00;95555.93;653694;216;24827;-76
2022/06/13 02:50:18;;;;;;;;;;;15.50;1.40;;;16.56;100.00;95557.58;657123;216;24998;-76
2022/06/13 02:53:01;;;;;;;;;;;15.50;1.40;;;16.57;100.00;95566.41;653690;216;25619;-77
2022/06/13 02:55:42;;;;;;;;;;;15.50;1.40;;;16.48;100.00;95577.24;661290;213;25200;-77
2022/06/13 02:58:25;;;;;;;;;;;15.50;99.90;;;16.43;100.00;95576.36;653248;212;24797;-76
2022/06/13 03:01:07;;;;;;;;;;;15.40;1.40;;;16.44;100.00;95539.97;649955;216;24815;-76
2022/06/13 03:03:51;;;;;;;;;;;15.40;1.40;;;16.44;100.00;95552.53;650713;212;24833;-76
2022/06/13 03:06:38;;;;;;;;;;;15.40;1.40;;;16.38;100.00;95585.75;654773;216;24825;-77
2022/06/13 03:09:42;;;;;;;;;;;15.30;1.40;;;16.34;100.00;95575.13;652256;216;24747;-76
2022/06/13 03:12:29;;;;;;;;;;;15.30;1.40;;;16.36;100.00;95542.27;658952;212;25385;-76
2022/06/13 03:15:26;;;;;;;;;;;15.30;1.40;;;16.36;100.00;95512.22;657355;216;24906;-77
2022/06/13 03:18:08;;;;;;;;;;;15.30;1.40;;;16.37;100.00;95501.06;657145;216;24887;-76
2022/06/13 03:20:51;;;;;;;;;;;15.30;1.40;;;16.42;100.00;95510.34;655487;212;24862;-76
2022/06/13 03:23:37;;;;;;;;;;;15.30;1.40;;;16.42;100.00;95515.27;656024;216;24825;-77
2022/06/13 03:26:19;;;;;;;;;;;15.30;1.40;;;16.37;100.00;95486.81;654597;216;24807;-77
2022/06/13 03:29:02;;;;;;;;;;;15.20;1.40;;;16.38;100.00;95469.88;658587;212;25587;-77
2022/06/13 03:31:44;;;;;;;;;;;15.30;1.40;;;16.37;100.00;95503.36;647469;215;24818;-77
2022/06/13 03:35:58;;;;;;;2.97;1.25;;;15.30;1.40;;;16.33;100.00;95514.53;652107;216;32233;-79
2022/06/13 03:39:10;;;;;;;2.20;1.50;;;15.20;1.40;;;16.31;100.00;95520.06;622992;226;31848;-77
2022/06/13 03:44:38;;;;;;;1.30;0.80;;;15.20;1.40;;;16.32;100.00;95534.69;649927;216;31536;-76
2022/06/13 03:47:31;;;;;;;2.62;1.37;;;15.20;1.40;;;16.24;100.00;95538.81;649142;216;32452;-77
2022/06/13 03:50:37;;;;;;;1.30;0.90;;;15.20;1.40;;;16.25;100.00;95527.50;647013;216;31855;-77
2022/06/13 03:53:21;;;;;;;1.50;1.05;;;15.20;1.40;;;16.27;100.00;95519.53;638844;216;31646;-77
2022/06/13 03:56:29;;;;;;;0.88;0.80;;;15.20;1.40;;;16.36;100.00;95520.97;646592;212;31507;-77
2022/06/13 03:59:30;;;;;;;1.80;1.10;;;15.20;1.40;;;16.40;100.00;95513.77;650303;212;31470;-76
2022/06/13 04:02:13;;;;;;;1.10;1.00;;;15.30;1.40;;;16.41;100.00;95505.05;645360;216;31551;-77
2022/06/13 04:04:55;;;;;;;1.52;1.42;;;15.30;1.40;;;16.46;100.00;95504.60;648084;216;31596;-77
2022/06/13 04:10:10;;;;;;;0.93;0.93;;;15.30;1.40;;;16.48;100.00;95505.36;625405;226;31991;-77
2022/06/13 04:13:01;;;;;;;3.80;1.10;;;15.30;1.40;;;16.47;100.00;95502.80;643475;216;31601;-77
2022/06/13 04:16:06;;;;;;;1.70;1.30;;;15.30;1.40;;;16.48;100.00;95506.88;620450;226;31853;-77
2022/06/13 04:18:56;;;;;;;1.98;1.10;;;15.30;1.40;;;16.44;100.00;95509.05;651513;216;31620;-77
2022/06/13 04:22:06;;;;;;;0.88;0.80;;;15.30;1.40;;;16.47;100.00;95505.06;649866;216;31690;-76
2022/06/13 04:24:58;;;;;;;2.00;1.10;;;15.30;1.40;;;16.49;100.00;95509.35;648158;216;31541;-77
2022/06/13 04:27:51;;;;;;;1.03;0.70;;;15.30;1.40;;;16.54;100.00;95514.82;648568;212;42161;-76
2022/06/13 04:30:32;;;;;;;0.70;0.70;;;15.40;1.40;;;16.62;100.00;95508.52;650052;216;31468;-77
2022/06/13 04:35:51;;;;;;;0.70;0.68;;;15.50;1.40;;;16.83;100.00;95494.25;644856;216;31676;-76
2022/06/13 04:38:34;;;;;;;2.23;1.23;;;15.60;1.40;;;16.87;100.00;95497.73;648443;212;31593;-77
2022/06/13 04:41:16;;;;;;;1.20;1.00;;;15.60;1.40;;;16.86;100.00;95493.05;648643;216;31491;-78
2022/06/13 04:43:58;;;;;;;1.30;1.00;;;15.50;1.40;;;16.83;100.00;95499.55;646733;216;31530;-77
2022/06/13 04:46:39;;;;;;;1.20;0.80;;;15.50;1.40;;;16.81;100.00;95502.98;647288;212;31517;-77
2022/06/13 04:49:30;;;;;;;0.90;0.90;;;15.50;1.40;;;16.70;100.00;95519.13;622103;226;32000;-81
2022/06/13 04:52:21;;;;;;;0.90;0.90;;;15.50;1.40;;;16.64;100.00;95525.70;622710;222;32635;-81
2022/06/13 04:55:23;;;;;;;1.50;1.02;;;15.40;1.40;;;16.70;100.00;95528.00;648652;216;31552;-78
2022/06/13 04:58:04;;;;;;;0.73;0.50;;;15.50;1.40;;;16.60;100.00;95529.64;646213;216;31491;-77
2022/06/13 05:00:49;;;;;;;1.10;0.70;;;15.40;1.40;;;16.55;100.00;95532.39;648708;216;31850;-76
2022/06/13 05:03:30;;;;;;;1.20;0.70;;;15.50;1.40;;;16.62;100.00;95541.70;647272;216;32107;-77
2022/06/13 05:06:33;;;;;;;0.60;0.60;;;15.40;1.40;;;16.60;100.00;95525.66;653630;216;31815;-77
2022/06/13 05:09:18;;;;;;;0.70;0.70;;;15.40;1.40;;;16.59;100.00;95530.62;645704;216;31475;-78
2022/06/13 05:12:07;;;;;;;0.75;0.62;;;15.40;1.40;;;16.53;100.00;95535.79;644784;216;31536;-79
2022/06/13 05:14:56;;;;;;;1.20;1.00;;;15.40;1.40;;;16.44;100.00;95532.25;651826;212;31537;-77
2022/06/13 05:17:51;;;;;;;0.85;0.70;;;15.30;1.40;;;16.46;100.00;95535.80;651470;216;31500;-78
2022/06/13 05:20:55;;;;;;;0.70;0.60;;;15.30;1.40;;;16.45;100.00;95526.92;647591;216;31514;-77
2022/06/13 05:23:43;;;;;;;0.50;0.40;;;15.30;1.40;;;16.38;100.00;95512.16;620702;225;32359;-79
2022/06/13 05:26:29;;;;;;;0.82;0.62;;;15.20;1.40;;;16.38;100.00;95516.80;618710;222;32034;-79
2022/06/13 05:29:06;;;;;;;0.57;0.50;;;15.30;1.40;;;16.38;100.00;95516.63;646608;216;31471;-78
2022/06/13 05:31:53;;;;;;;0.70;0.70;;;15.30;1.40;;;16.42;100.00;95517.45;618338;222;32047;-80
2022/06/13 05:35:57;;;;;;;0.60;0.40;;;15.40;1.40;;;16.51;100.00;95519.10;646519;216;31509;-78
2022/06/13 05:38:46;;;;;;;1.27;0.75;;;15.40;1.40;;;16.57;100.00;95521.81;649279;212;31461;-78
2022/06/13 05:41:28;;;;;;;1.05;0.60;;;15.40;1.40;;;16.68;100.00;95518.78;651472;216;31475;-77
2022/06/13 05:44:10;;;;;;;0.50;0.50;;;15.50;1.40;;;16.81;100.00;95522.55;647162;216;31493;-78
2022/06/13 05:46:51;;;;;;;0.50;0.40;;;15.60;1.40;;;16.88;100.00;95528.97;623150;222;31867;-76
2022/06/13 05:49:39;;;;;;;0.65;0.50;;;15.60;1.40;;;16.88;100.00;95525.61;647912;216;31483;-75
2022/06/13 05:52:21;;;;;;;1.00;0.57;;;15.60;1.40;;;17.06;100.00;95519.05;645422;212;32132;-75
2022/06/13 05:55:02;;;;;;;0.70;0.40;;;15.90;1.40;;;17.00;100.00;95509.66;645486;212;31513;-75
2022/06/13 05:57:44;;;;;;;0.70;0.70;;;15.70;1.40;;;16.94;100.00;95512.58;647348;212;31503;-77
2022/06/13 06:00:26;;;;;;;0.82;0.82;;;15.70;1.40;;;16.92;100.00;95516.34;643541;216;31618;-75
2022/06/13 06:03:08;;;;;;;0.60;0.50;;;15.70;1.40;;;17.07;100.00;95517.28;650748;212;31484;-75
2022/06/13 06:05:50;;;;;;;1.27;1.17;;;15.90;1.40;;;17.12;100.00;95521.45;645068;216;42097;-76
2022/06/13 06:08:32;;;;;;;0.60;0.60;;;15.90;1.40;;;17.25;100.00;95524.67;624799;226;31808;-75
2022/06/13 06:11:13;;;;;;;0.50;0.50;;;16.00;1.40;;;17.30;100.00;95519.36;649544;216;31526;-76
2022/06/13 06:13:56;;;;;;;0.70;0.70;;;16.10;1.40;;;17.20;100.00;95513.09;621743;222;31812;-74
2022/06/13 06:16:37;;;;;;;0.80;0.80;;;15.90;1.40;;;17.27;100.00;95514.00;645377;212;31505;-75
2022/06/13 06:19:19;;;;;;;2.70;0.70;;;16.10;1.40;;;17.59;100.00;95510.80;622115;222;31817;-75
2022/06/13 06:22:00;;;;;;;1.40;0.98;;;16.40;1.40;;;17.53;100.00;95510.73;648000;216;31564;-75
2022/06/13 06:24:48;;;;;;;1.58;0.90;;;16.40;1.40;;;17.80;100.00;95516.56;646701;216;31575;-76
2022/06/13 06:27:36;;;;;;;1.40;0.90;;;16.70;1.40;;;18.03;100.00;95522.45;646163;216;31505;-75
2022/06/13 06:30:17;;;;;;;1.10;0.90;;;17.00;1.40;;;18.04;100.00;95514.38;646733;212;32174;-75
2022/06/13 06:32:59;;;;;;;1.30;0.77;;;17.00;1.40;;;17.96;100.00;95522.92;647121;216;32241;-76
2022/06/13 06:35:52;;;;;;;1.12;0.80;;;17.00;1.40;;;18.12;100.00;95522.44;647945;212;31490;-75
2022/06/13 06:38:34;;;;;;;1.10;1.00;;;17.00;1.40;;;18.11;100.00;95525.48;647467;212;31837;-75
2022/06/13 06:41:16;;;;;;;1.87;0.82;;;17.10;1.40;;;18.20;100.00;95530.94;618161;222;32059;-75
2022/06/13 06:43:58;;;;;;;1.42;1.17;;;17.10;1.40;;;18.03;100.00;95531.71;619286;226;31804;-75
2022/06/13 06:46:39;;;;;;;0.98;0.80;;;17.00;1.40;;;18.12;100.00;95541.00;647352;216;31624;-76
2022/06/13 06:49:22;;;;;;;1.10;1.00;;;17.10;1.40;;;17.93;100.00;95546.16;649915;212;31528;-73
2022/06/13 06:52:10;;;;;;;3.70;1.60;;;16.80;1.40;;;17.85;100.00;95536.08;644027;216;31594;-76
2022/06/13 07:00:32;;;;;;;1.23;1.13;;;16.80;1.40;;;18.00;100.00;95549.48;617589;226;31873;-75
2022/06/13 07:05:50;;;;;;;0.70;0.65;;;17.00;1.40;;;18.20;100.00;95547.86;646162;216;31899;-74
2022/06/13 07:08:29;;;;;;;1.00;0.60;;;17.10;1.40;;;18.32;100.00;95556.78;647831;212;31499;-73
2022/06/13 07:14:04;;;;;;;1.30;0.95;;;17.00;1.40;;;18.24;100.00;95565.12;647215;212;31509;-74
2022/06/13 07:16:45;;;;;;;1.03;0.93;;;17.00;1.40;;;18.20;100.00;95561.48;645604;212;31523;-73
2022/06/13 07:22:01;;;;;;;2.33;0.70;;;17.10;1.40;;;18.40;100.00;95569.12;645857;212;31945;-74
2022/06/13 07:24:46;;;;;;;1.10;0.98;;;17.20;1.40;;;18.53;100.00;95565.57;648334;216;32037;-74
2022/06/13 07:27:28;;;;;;;1.37;1.27;;;17.20;1.40;;;18.36;100.00;95577.23;648076;212;31531;-76
2022/06/13 07:30:10;;;;;;;1.35;1.25;;;17.00;1.40;;;18.23;100.00;95583.34;648879;216;31468;-73
2022/06/13 07:32:51;;;;;;;2.35;1.50;;;16.90;1.40;;;18.10;100.00;95583.10;645468;212;31618;-73
2022/06/13 07:35:51;;;;;;;1.62;1.25;;;16.90;1.40;;;18.18;100.00;95579.02;646443;216;31884;-73
2022/06/13 07:38:33;;;;;;;1.10;1.00;;;17.00;1.40;;;18.41;100.00;95577.23;646329;212;42166;-78
2022/06/13 07:41:15;;;;;;;1.02;0.77;;;17.20;1.40;;;18.77;100.00;95576.15;646993;212;31515;-74
2022/06/13 07:43:56;;;;;;;1.12;1.02;;;17.40;1.40;;;18.60;100.00;95588.69;646095;212;31539;-73
2022/06/13 07:46:38;;;;;;;1.42;1.05;;;17.20;1.40;;;18.65;100.00;95584.36;646261;216;31569;-73
2022/06/13 07:49:19;;;;;;;1.15;1.05;;;17.20;1.40;;;18.69;100.00;95583.26;646781;212;31563;-75
2022/06/13 07:52:01;;;;;;;1.30;1.20;;;17.30;1.40;;;18.70;100.00;95589.16;616663;222;32148;-73
2022/06/13 07:54:43;;;;;;;1.80;1.50;;;17.30;1.40;;;18.63;100.00;95602.65;646968;212;31519;-73
2022/06/13 07:57:25;;;;;;;1.02;0.93;;;17.50;1.40;;;18.98;100.00;95597.27;646569;216;31506;-75
2022/06/13 08:00:11;;;;;;;3.20;1.27;;;17.70;1.40;;;19.29;100.00;95596.62;646018;213;32078;-73
2022/06/13 08:02:53;;;;;;;2.10;1.20;;;17.90;1.40;;;19.25;100.00;95612.13;646148;216;31618;-73
2022/06/13 08:05:34;;;;;;;3.62;1.40;;;17.90;1.40;;;19.01;100.00;95610.45;647047;216;31756;-73
2022/06/13 08:08:16;;;;;;;1.60;1.50;;;17.60;1.40;;;18.99;100.00;95608.31;642369;216;31727;-74
2022/06/13 08:10:58;;;;;;;4.00;1.17;;;17.50;1.40;;;18.96;100.00;95606.71;646359;212;31664;-74
2022/06/13 08:13:42;;;;;;;1.20;1.02;;;17.40;1.40;;;18.88;100.00;95611.64;645701;212;31527;-73
2022/06/13 08:16:24;;;;;;;1.80;1.15;;;17.40;1.40;;;18.99;100.00;95604.72;647323;216;31460;-73
2022/06/13 08:19:06;;;;;;;1.50;1.25;;;17.40;1.40;;;19.08;100.00;95613.35;646981;212;31527;-75
2022/06/13 08:21:51;;;;;;;1.50;1.37;;;17.60;1.40;;;19.35;100.00;95614.38;645614;216;31560;-73
2022/06/13 08:24:33;;;;;;;1.10;1.00;;;17.70;1.40;;;19.48;100.00;95621.73;647097;216;31537;-74
2022/06/13 08:27:14;;;;;;;2.30;1.95;;;18.00;1.40;;;19.49;100.00;95627.13;646816;212;31506;-73
2022/06/13 08:29:56;;;;;;;1.80;1.62;;;17.90;1.40;;;19.65;100.00;95625.78;645782;216;31911;-73
2022/06/13 08:32:37;;;;;;;3.00;1.67;;;18.30;1.40;;;20.21;100.00;95629.98;618998;222;31924;-74
2022/06/13 08:35:55;;;;;;;1.95;1.70;;;18.90;1.40;;;20.07;100.00;95632.92;646218;212;32149;-74
2022/06/13 08:38:36;;;;;;;2.20;1.60;;;18.60;1.40;;;19.85;100.00;95639.66;646294;216;31958;-73
2022/06/13 08:41:48;;;;;;;3.20;1.60;;;18.10;1.40;;;19.79;100.00;95635.78;645528;216;33656;-73
2022/06/13 08:44:49;;;;;;;4.70;1.17;;;18.20;1.40;;;19.95;100.00;95643.59;646184;216;31648;-73
2022/06/13 08:47:47;;;;;;;1.30;1.20;;;18.30;1.40;;;20.13;100.00;95642.59;647222;216;31563;-74
2022/06/13 08:53:04;;;;;;;2.80;1.50;;;18.60;1.40;;;20.07;100.00;95645.10;639073;216;31676;-73
2022/06/13 08:55:47;;;;;;;2.40;1.58;;;18.70;1.40;;;20.24;100.00;95641.00;630984;222;31649;-74
2022/06/13 08:58:29;;;;;;;1.42;1.10;;;19.10;1.40;;;20.68;100.00;95645.46;646321;216;42195;-73
2022/06/13 09:01:33;;;;;;;1.00;0.70;;;19.50;1.40;;;20.51;100.00;95649.14;647051;213;42171;-74
2022/06/13 09:04:16;;;;;;;1.42;1.30;;;19.00;1.40;;;20.76;100.00;95652.99;647189;216;31556;-74
2022/06/13 09:07:08;;;;;;;1.48;1.37;;;19.00;1.40;;;20.34;100.00;95666.53;647941;212;31511;-73
2022/06/13 09:09:54;;;;;;;1.40;1.30;;;18.60;1.40;;;20.42;100.00;95669.02;645923;212;31537;-73
2022/06/13 09:12:41;;;;;;;1.48;1.37;;;18.80;1.40;;;20.64;100.00;95666.06;646763;212;31510;-74
2022/06/13 09:15:36;;;;;;;1.30;1.20;;;19.40;1.40;;;21.55;100.00;95670.66;646353;216;31551;-74
2022/06/13 09:18:22;;;;;;;1.27;1.17;;;20.60;1.40;;;21.07;100.00;95679.23;646911;212;32073;-74
2022/06/13 09:21:14;;;;;;;1.50;1.40;;;19.40;1.40;;;20.89;100.00;95682.94;648260;212;31527;-73
2022/06/13 09:24:38;;;;;;;1.30;1.20;;;19.70;1.40;;;21.13;100.00;95683.09;646375;212;31559;-73
2022/06/13 09:27:23;;;;;;;1.20;1.10;;;19.80;1.40;;;21.92;100.00;95681.19;646966;216;31590;-73
2022/06/13 09:30:07;;;;;;;1.87;1.30;;;20.30;1.40;;;21.21;100.00;95683.16;647965;216;31517;-73
2022/06/13 09:38:25;;;;;;;3.97;1.00;;;20.30;1.40;;;21.65;100.00;95696.78;647501;212;31909;-74
2022/06/13 09:41:15;;;;;;;0.60;0.50;;;21.10;1.40;;;22.94;100.00;95695.63;619092;222;32035;-73
2022/06/13 09:44:20;;;;;;;0.90;0.80;;;22.80;1.40;;;23.71;100.00;95700.59;647509;212;31518;-73
2022/06/13 09:47:10;;;;;;;1.17;1.08;;;23.80;1.40;;;24.43;87.44;95689.51;645970;216;33012;-73
2022/06/13 09:50:01;;;;;;;4.40;1.00;;;22.90;1.40;;;24.26;86.96;95696.82;646457;212;32126;-75
2022/06/13 09:52:52;;;;;;;2.78;0.98;;;23.70;1.40;;;24.42;83.90;95699.74;614233;222;32139;-73
2022/06/13 09:55:51;;;;;;;2.10;1.42;;;23.70;1.40;;;24.71;85.19;95702.10;645743;216;31673;-73
2022/06/13 09:59:07;;;;;;;1.65;1.00;;;23.80;1.40;;;24.58;83.37;95703.19;647227;216;42669;-73
2022/06/13 10:01:58;;;;;;;3.30;1.37;;;24.00;1.40;;;25.25;79.64;95700.58;646274;212;31512;-73
2022/06/13 10:04:51;;;;;;;1.58;1.37;;;23.90;99.90;;;25.11;82.35;95699.33;647843;212;31536;-74
2022/06/13 10:07:40;;;;;;;1.20;1.10;;;23.60;1.40;;;25.91;82.29;95698.11;647968;216;31585;-74
2022/06/13 10:11:10;;;;;;;3.30;1.12;;;25.00;1.40;;;26.13;77.97;95696.61;647375;212;42144;-74
2022/06/13 10:14:06;;;;;;;1.50;1.10;;;24.10;1.40;;;24.12;83.70;95699.77;645964;212;42781;-73
2022/06/13 10:16:54;;;;;;;1.60;1.00;;;22.10;99.90;;;25.45;88.17;95691.56;645966;212;31533;-73
2022/06/13 10:20:07;;;;;;;1.27;1.10;;;25.00;1.40;;;25.04;78.08;95704.73;646319;212;31474;-74
2022/06/13 10:25:26;;;;;;;2.78;1.10;;;24.30;1.40;;;26.47;72.99;95702.95;646194;212;31973;-73
2022/06/13 10:28:30;;;;;;;1.00;0.80;;;25.70;1.40;;;27.00;69.68;95700.44;646288;216;42152;-73
2022/06/13 10:31:34;;;;;;;2.67;1.10;;;26.30;1.40;;;26.46;65.29;95703.34;646639;212;31525;-74
2022/06/13 10:36:02;;;;;;;2.60;1.08;;;25.00;1.40;;;26.39;66.79;95705.50;630748;222;31798;-73
2022/06/13 10:38:56;;;;;;;1.17;1.08;;;24.80;1.40;;;26.95;66.11;95702.77;646927;212;32105;-73
2022/06/13 10:41:39;;;;;;;3.22;1.10;;;26.40;1.40;;;25.80;68.83;95708.69;620401;226;32036;-72
2022/06/13 10:44:23;;;;;;;5.50;1.42;;;25.00;1.40;;;25.42;73.89;95711.36;645917;213;31551;-72
2022/06/13 10:47:08;;;;;;;1.75;1.02;;;23.90;1.40;;;25.77;67.75;95710.16;646821;212;31516;-73
2022/06/13 10:50:11;;;;;;;2.20;0.85;;;25.00;1.40;;;26.63;67.23;95710.66;647334;216;31604;-72
2022/06/13 10:52:53;;;;;;;1.70;1.02;;;25.60;1.40;;;26.31;64.46;95707.82;639517;212;31711;-72
2022/06/13 10:55:36;;;;;;;2.58;1.08;;;24.90;1.40;;;26.18;61.19;95711.61;646484;216;32087;-73
2022/06/13 10:58:24;;;;;;;1.60;0.80;;;24.90;1.40;;;26.38;55.30;95705.73;620409;222;32558;-73
2022/06/13 11:01:11;;;;;;;1.20;0.63;;;25.00;1.40;;;26.73;55.38;95712.95;618491;222;43067;-74
2022/06/13 11:04:00;;;;;;;3.40;0.80;;;25.10;1.40;;;26.90;54.66;95710.02;646171;216;31602;-73
2022/06/13 11:06:42;;;;;;;1.00;0.90;;;25.60;1.40;;;26.32;54.71;95704.23;646081;212;31608;-73
2022/06/13 11:09:33;;;;;;;2.90;1.20;;;24.50;1.40;;;25.57;55.20;95716.41;646222;216;31724;-74
2022/06/13 11:12:21;;;;;;;2.20;1.00;;;23.30;1.40;;;24.77;55.54;95710.30;619981;226;32064;-74
2022/06/13 11:23:32;;;;;;;1.10;0.98;;;23.50;1.40;;;25.41;60.21;95700.78;646785;216;31574;-73
2022/06/13 11:29:02;;;;;;;2.70;0.90;;;24.10;1.40;;;25.29;58.75;95706.81;646449;216;31648;-73
2022/06/13 11:35:56;;;;;;;1.30;0.70;;;24.90;1.40;;;26.82;54.90;95710.02;619042;226;34781;-73
2022/06/13 11:38:54;;;;;;;1.33;0.85;;;24.90;1.40;;;27.61;51.65;95710.28;647675;212;32264;-74
2022/06/13 11:41:42;;;;;;;2.90;1.10;;;24.60;1.40;;;26.36;56.61;95718.63;646305;212;31536;-73
2022/06/13 11:44:25;;;;;;;1.10;1.00;;;23.50;1.40;;;25.01;59.50;95709.20;646156;216;31588;-74
2022/06/13 11:47:06;;;;;;;1.60;1.00;;;23.00;1.40;;;26.21;57.60;95701.02;645420;216;31887;-73
2022/06/13 11:49:53;;;;;;;2.30;1.00;;;25.50;1.40;;;28.01;53.91;95699.24;646682;212;42114;-73
2022/06/13 11:55:24;;;;;;;6.10;1.60;;;24.00;1.40;;;24.71;58.15;95716.61;647188;212;31511;-74
2022/06/13 11:58:05;;;;;;;2.90;1.00;;;22.30;1.40;;;25.53;57.51;95706.88;647200;216;32001;-74
2022/06/13 12:00:49;;;;;;;1.90;0.88;;;24.20;1.40;;;26.87;54.94;95703.03;646649;212;31503;-73
2022/06/13 12:03:31;;;;;;;1.58;0.90;;;24.80;1.40;;;25.92;53.76;95710.06;646406;212;31605;-73
2022/06/13 12:06:13;;;;;;;1.50;0.70;;;23.50;1.40;;;26.52;52.19;95704.72;646282;212;42233;-73
2022/06/13 12:09:03;;;;;;;1.20;0.80;;;24.50;1.40;;;25.96;54.29;95710.45;647304;216;31572;-73
2022/06/13 12:11:44;;;;;;;2.72;1.10;;;23.60;1.40;;;25.16;55.86;95707.38;647474;216;31717;-73
2022/06/13 12:17:10;;;;;;;0.90;0.70;;;23.50;1.40;;;26.26;48.38;95710.16;646772;212;31542;-74
2022/06/13 12:19:54;;;;;;;1.67;0.70;;;24.20;1.40;;;27.72;44.80;95706.45;646746;212;31490;-73
2022/06/13 12:22:47;;;;;;;3.47;1.27;;;24.70;1.40;;;27.85;43.95;95703.85;647292;216;31494;-73
2022/06/13 12:25:40;;;;;;;2.50;0.98;;;24.70;1.40;;;28.06;46.32;95711.52;646559;216;43397;-73
2022/06/13 12:28:22;;;;;;;4.28;1.00;;;24.70;1.40;;;27.96;46.90;95714.00;647466;216;42313;-73
2022/06/13 12:31:07;;;;;;;1.05;0.70;;;24.40;1.40;;;28.15;43.86;95709.81;647034;212;31839;-74
2022/06/13 12:39:06;;;;;;;1.20;0.82;;;25.40;1.40;;;28.59;44.54;95715.72;647207;216;31749;-74
2022/06/13 12:42:10;;;;;;;3.70;0.85;;;25.10;1.40;;;27.52;43.06;95718.66;647576;216;31596;-74
2022/06/13 12:45:16;;;;;;;3.58;0.90;;;24.40;1.40;;;27.76;43.99;95720.86;619853;222;31995;-74
2022/06/13 12:48:03;;;;;;;1.50;0.90;;;24.40;1.40;;;28.20;45.02;95718.02;646204;216;31583;-73
2022/06/13 12:50:54;;;;;;;0.93;0.70;;;25.20;1.40;;;28.08;40.37;95718.28;647817;216;31516;-74
2022/06/13 12:54:00;;;;;;;2.65;0.88;;;24.80;1.40;;;27.14;41.24;95715.37;636541;216;31682;-73
2022/06/13 12:57:18;;;;;;;2.62;1.00;;;24.50;1.40;;;28.10;41.76;95711.31;647207;216;31624;-74
2022/06/13 13:00:10;;;;;;;3.78;1.00;;;24.70;1.40;;;27.92;41.57;95717.17;619450;222;31795;-74
2022/06/13 13:03:31;;;;;;;2.28;1.00;;;24.70;1.40;;;28.28;42.13;95715.45;645949;216;42130;-73
2022/06/13 13:06:48;;;;;;;0.90;0.80;;;25.20;1.40;;;28.02;41.62;95711.02;646133;216;31552;-73
2022/06/13 13:09:47;;;;;;;1.73;0.90;;;24.90;1.40;;;28.07;41.39;95702.42;646671;216;31532;-73
2022/06/13 13:15:43;;;;;;;0.80;0.70;;;25.10;1.40;;;27.04;43.31;95715.06;645553;212;31597;-73